createdAt,value
2018-07-28T00:00:38.579Z,99850.90
2018-07-28T00:03:31.187Z,99859.93
2018-07-28T00:06:23.684Z,99866.02
2018-07-28T00:09:16.227Z,99861.22
2018-07-28T00:12:08.682Z,99849.62
2018-07-28T00:15:04.163Z,99847.11
2018-07-28T00:17:56.722Z,99847.33
2018-07-28T00:20:49.174Z,99841.77
2018-07-28T00:23:41.715Z,99839.58
2018-07-28T00:26:34.207Z,99837.20
2018-07-28T00:29:26.854Z,99836.34
2018-07-28T00:32:20.111Z,99838.23
2018-07-28T00:35:12.706Z,99831.48
2018-07-28T00:38:05.264Z,99825.47
2018-07-28T00:40:57.706Z,99820.45
2018-07-28T00:43:50.282Z,99808.56
2018-07-28T00:46:42.870Z,99811.66
2018-07-28T00:49:35.403Z,99816.72
2018-07-28T00:52:27.865Z,99812.98
2018-07-28T00:55:20.354Z,99806.23
2018-07-28T00:58:12.946Z,99797.59
2018-07-28T01:01:05.560Z,99790.79
2018-07-28T01:03:58.055Z,99794.02
2018-07-28T01:06:50.594Z,99798.12
2018-07-28T01:09:43.103Z,99795.74
2018-07-28T01:12:35.786Z,99794.39
2018-07-28T01:15:28.334Z,99789.28
2018-07-28T01:18:20.782Z,99788.63
2018-07-28T01:21:13.244Z,99786.40
2018-07-28T01:24:05.946Z,99784.91
2018-07-28T01:26:58.517Z,99781.86
2018-07-28T01:29:51.001Z,99773.36
2018-07-28T01:32:43.584Z,99770.00
2018-07-28T01:35:36.153Z,99767.28
2018-07-28T01:38:28.754Z,99771.89
2018-07-28T01:41:21.218Z,99766.66
2018-07-28T01:44:13.789Z,99761.10
2018-07-28T01:47:06.271Z,99756.02
2018-07-28T01:49:58.734Z,99755.83
2018-07-28T01:52:51.564Z,99756.36
2018-07-28T01:55:44.177Z,99747.05
2018-07-28T01:58:36.620Z,99746.18
2018-07-28T02:01:29.438Z,99733.87
2018-07-28T02:04:22.231Z,99729.92
2018-07-28T02:07:14.789Z,99725.00
2018-07-28T02:10:08.170Z,99716.72
2018-07-28T02:13:00.719Z,99724.31
2018-07-28T02:15:53.488Z,99724.98
2018-07-28T02:18:46.213Z,99716.49
2018-07-28T02:21:39.088Z,99718.03
2018-07-28T02:24:31.606Z,99720.89
2018-07-28T02:27:24.316Z,99724.63
2018-07-28T02:30:17.060Z,99723.12
2018-07-28T02:33:10.193Z,99723.98
2018-07-28T02:36:03.087Z,99721.41
2018-07-28T02:38:55.947Z,99719.69
2018-07-28T02:41:49.150Z,99717.13
2018-07-28T02:44:41.740Z,99718.48
2018-07-28T02:47:34.261Z,99714.97
2018-07-28T02:50:26.808Z,99722.77
2018-07-28T02:53:20.526Z,99720.06
2018-07-28T02:56:14.548Z,99717.32
2018-07-28T02:59:07.385Z,99717.47
2018-07-28T03:02:00.082Z,99711.39
2018-07-28T03:04:52.714Z,99706.30
2018-07-28T03:07:45.316Z,99704.44
2018-07-28T03:10:37.865Z,99708.95
2018-07-28T03:13:30.500Z,99711.44
2018-07-28T03:16:23.024Z,99714.34
2018-07-28T03:19:15.575Z,99707.80
2018-07-28T03:22:08.047Z,99702.72
2018-07-28T03:25:00.747Z,99705.06
2018-07-28T03:27:53.730Z,99697.56
2018-07-28T03:30:46.342Z,99699.28
2018-07-28T03:33:38.952Z,99699.28
2018-07-28T03:36:32.394Z,99697.11
2018-07-28T03:39:24.996Z,99699.83
2018-07-28T03:42:17.528Z,99698.14
2018-07-28T03:45:10.594Z,99696.94
2018-07-28T03:48:03.113Z,99696.50
2018-07-28T03:50:55.724Z,99695.28
2018-07-28T03:53:48.199Z,99694.11
2018-07-28T03:56:40.851Z,99696.97
2018-07-28T03:59:33.332Z,99696.05
2018-07-28T04:02:25.952Z,99694.15
2018-07-28T04:05:18.771Z,99701.73
2018-07-28T04:08:11.262Z,99700.56
2018-07-28T04:11:03.758Z,99697.15
2018-07-28T04:13:56.244Z,99693.49
2018-07-28T04:16:48.721Z,99693.67
2018-07-28T04:19:41.251Z,99688.11
2018-07-28T04:22:33.715Z,99692.14
2018-07-28T04:25:26.215Z,99690.41
2018-07-28T04:28:18.739Z,99689.09
2018-07-28T04:31:11.303Z,99686.57
2018-07-28T04:34:03.782Z,99683.56
2018-07-28T04:36:56.423Z,99683.13
2018-07-28T04:39:49.079Z,99678.33
2018-07-28T04:42:42.646Z,99683.81
2018-07-28T04:45:35.170Z,99683.13
2018-07-28T04:48:27.727Z,99686.16
2018-07-28T04:51:20.246Z,99685.98
2018-07-28T04:54:12.736Z,99682.94
2018-07-28T04:57:05.252Z,99683.41
2018-07-28T04:59:57.910Z,99673.08
2018-07-28T05:02:50.454Z,99674.44
2018-07-28T05:05:43.228Z,99672.75
2018-07-28T05:08:36.509Z,99676.13
2018-07-28T05:11:29.103Z,99676.63
2018-07-28T05:14:21.619Z,99674.25
2018-07-28T05:17:14.261Z,99670.73
2018-07-28T05:20:06.873Z,99677.19
2018-07-28T05:22:59.415Z,99674.15
2018-07-28T05:25:51.998Z,99677.52
2018-07-28T05:28:44.589Z,99667.41
2018-07-28T05:31:37.111Z,99671.58
2018-07-28T05:34:30.242Z,99672.09
2018-07-28T05:37:22.774Z,99673.30
2018-07-28T05:40:15.307Z,99677.89
2018-07-28T05:43:08.088Z,99675.69
2018-07-28T05:46:00.660Z,99677.59
2018-07-28T05:48:53.362Z,99674.81
2018-07-28T05:51:45.875Z,99678.98
2018-07-28T05:54:39.077Z,99677.12
2018-07-28T05:57:31.674Z,99671.37
2018-07-28T06:00:24.143Z,99669.61
2018-07-28T06:03:16.678Z,99669.80
2018-07-28T06:06:09.315Z,99666.20
2018-07-28T06:09:01.797Z,99662.61
2018-07-28T06:11:54.262Z,99658.39
2018-07-28T06:14:46.935Z,99659.42
2018-07-28T06:17:39.549Z,99665.17
2018-07-28T06:20:32.120Z,99663.08
2018-07-28T06:23:25.275Z,99667.88
2018-07-28T06:26:17.840Z,99665.69
2018-07-28T06:29:10.329Z,99669.06
2018-07-28T06:32:03.410Z,99667.05
2018-07-28T06:34:56.158Z,99659.75
2018-07-28T06:37:48.811Z,99655.35
2018-07-28T06:40:41.377Z,99659.47
2018-07-28T06:43:34.035Z,99661.33
2018-07-28T06:46:26.630Z,99658.91
2018-07-28T06:49:19.149Z,99654.47
2018-07-28T06:52:11.744Z,99648.06
2018-07-28T06:55:06.843Z,99645.87
2018-07-28T06:58:02.162Z,99642.84
2018-07-28T07:00:54.874Z,99650.59
2018-07-28T07:03:48.743Z,99649.61
2018-07-28T07:06:41.666Z,99650.23
2018-07-28T07:09:34.425Z,99652.42
2018-07-28T07:12:26.998Z,99653.16
2018-07-28T07:15:19.691Z,99658.20
2018-07-28T07:18:12.279Z,99664.66
2018-07-28T07:21:04.824Z,99659.84
2018-07-28T07:23:57.472Z,99653.20
2018-07-28T07:26:50.218Z,99647.67
2018-07-28T07:29:42.830Z,99649.39
2018-07-28T07:32:35.478Z,99643.92
2018-07-28T07:35:27.983Z,99643.80
2018-07-28T07:38:20.544Z,99642.08
2018-07-28T07:41:13.163Z,99639.20
2018-07-28T07:44:05.803Z,99642.80
2018-07-28T07:46:58.392Z,99638.02
2018-07-28T07:49:50.954Z,99635.47
2018-07-28T07:52:43.517Z,99621.56
2018-07-28T07:55:36.223Z,99625.48
2018-07-28T07:58:29.364Z,99617.80
2018-07-28T08:01:22.110Z,99615.61
2018-07-28T08:04:15.131Z,99625.38
2018-07-28T08:07:07.673Z,99621.83
2018-07-28T08:10:00.200Z,99624.50
2018-07-28T08:12:52.629Z,99610.25
2018-07-28T08:15:45.140Z,99622.08
2018-07-28T08:18:37.981Z,99612.87
2018-07-28T08:21:31.405Z,99619.47
2018-07-28T08:24:24.054Z,99616.89
2018-07-28T08:27:17.323Z,99617.92
2018-07-28T08:30:10.084Z,99609.89
2018-07-28T08:33:03.268Z,99610.26
2018-07-28T08:35:56.225Z,99609.23
2018-07-28T08:38:49.015Z,99605.45
2018-07-28T08:41:43.732Z,99606.05
2018-07-28T08:44:36.435Z,99614.80
2018-07-28T08:47:29.042Z,99623.66
2018-07-28T08:50:21.602Z,99619.64
2018-07-28T08:53:14.299Z,99617.19
2018-07-28T08:56:06.807Z,99628.63
2018-07-28T08:58:59.420Z,99615.50
2018-07-28T09:01:52.139Z,99623.07
2018-07-28T09:04:44.894Z,99622.22
2018-07-28T09:07:37.569Z,99623.52
2018-07-28T09:10:31.008Z,99625.39
2018-07-28T09:13:23.480Z,99621.64
2018-07-28T09:16:15.969Z,99621.40
2018-07-28T09:19:08.531Z,99618.69
2018-07-28T09:22:01.202Z,99619.25
2018-07-28T09:24:53.645Z,99618.94
2018-07-28T09:27:46.147Z,99607.25
2018-07-28T09:30:38.555Z,99610.08
2018-07-28T09:33:31.041Z,99602.66
2018-07-28T09:36:23.584Z,99603.51
2018-07-28T09:39:16.124Z,99588.13
2018-07-28T09:42:08.626Z,99584.07
2018-07-28T09:45:06.207Z,99581.02
2018-07-28T09:47:58.743Z,99579.84
2018-07-28T09:50:51.322Z,99585.94
2018-07-28T09:53:43.854Z,99588.70
2018-07-28T09:56:36.350Z,99582.95
2018-07-28T09:59:28.929Z,99583.66
2018-07-28T10:02:21.494Z,99575.89
2018-07-28T10:05:14.082Z,99581.59
2018-07-28T10:08:06.593Z,99583.14
2018-07-28T10:10:59.176Z,99581.97
2018-07-28T10:13:51.790Z,99584.16
2018-07-28T10:16:44.339Z,99580.59
2018-07-28T10:19:36.822Z,99569.42
2018-07-28T10:22:29.347Z,99572.46
2018-07-28T10:25:21.848Z,99564.52
2018-07-28T10:28:15.067Z,99563.67
2018-07-28T10:31:07.662Z,99560.77
2018-07-28T10:34:00.172Z,99560.43
2018-07-28T10:36:52.722Z,99553.63
2018-07-28T10:39:45.214Z,99557.03
2018-07-28T10:42:38.017Z,99560.27
2018-07-28T10:45:30.683Z,99549.98
2018-07-28T10:48:23.205Z,99557.73
2018-07-28T10:51:15.782Z,99553.67
2018-07-28T10:54:08.285Z,99539.97
2018-07-28T10:57:00.824Z,99542.30
2018-07-28T10:59:54.195Z,99542.23
2018-07-28T11:02:46.619Z,99537.79
2018-07-28T11:05:39.395Z,99537.98
2018-07-28T11:08:31.833Z,99534.23
2018-07-28T11:11:24.315Z,99533.39
2018-07-28T11:14:16.897Z,99533.07
2018-07-28T11:17:09.470Z,99516.48
2018-07-28T11:20:05.094Z,99522.23
2018-07-28T11:22:57.546Z,99520.56
2018-07-28T11:25:50.166Z,99507.27
2018-07-28T11:28:42.597Z,99503.88
2018-07-28T11:31:46.459Z,99499.31
2018-07-28T11:34:50.362Z,99496.93
2018-07-28T11:38:03.370Z,99498.15
2018-07-28T11:41:07.416Z,99496.47
2018-07-28T11:44:11.254Z,99495.44
2018-07-28T11:47:03.832Z,99489.04
2018-07-28T11:49:56.350Z,99481.42
2018-07-28T11:52:48.784Z,99489.04
2018-07-28T11:55:41.347Z,99487.43
2018-07-28T11:58:34.402Z,99489.28
2018-07-28T12:01:26.947Z,99490.12
2018-07-28T12:04:19.464Z,99482.13
2018-07-28T12:07:11.986Z,99481.97
2018-07-28T12:10:06.676Z,99482.58
2018-07-28T12:12:59.278Z,99484.30
2018-07-28T12:15:51.775Z,99485.19
2018-07-28T12:18:44.427Z,99494.31
2018-07-28T12:21:37.039Z,99499.91
2018-07-28T12:24:29.516Z,99490.25
2018-07-28T12:27:22.178Z,99489.41
2018-07-28T12:30:14.649Z,99489.94
2018-07-28T12:33:07.262Z,99483.48
2018-07-28T12:35:59.786Z,99486.69
2018-07-28T12:38:52.340Z,99481.78
2018-07-28T12:41:44.894Z,99480.24
2018-07-28T12:44:37.324Z,99488.56
2018-07-28T12:47:29.810Z,99482.58
2018-07-28T12:50:22.333Z,99490.89
2018-07-28T12:53:14.882Z,99481.97
2018-07-28T12:56:07.456Z,99482.48
2018-07-28T12:58:59.990Z,99478.23
2018-07-28T13:05:03.919Z,99472.95
2018-07-28T13:07:56.415Z,99469.73
2018-07-28T13:10:49.017Z,99464.52
2018-07-28T13:13:41.579Z,99459.97
2018-07-28T13:16:34.821Z,99459.25
2018-07-28T13:19:27.455Z,99457.59
2018-07-28T13:22:20.018Z,99454.86
2018-07-28T13:25:12.527Z,99447.03
2018-07-28T13:28:05.060Z,99447.88
2018-07-28T13:30:57.583Z,99450.75
2018-07-28T13:33:50.066Z,99444.51
2018-07-28T13:36:43.318Z,99446.91
2018-07-28T13:39:37.159Z,99442.16
2018-07-28T13:42:29.769Z,99447.24
2018-07-28T13:45:22.271Z,99451.63
2018-07-28T13:48:14.835Z,99461.95
2018-07-28T13:51:07.356Z,99462.67
2018-07-28T13:54:00.146Z,99468.56
2018-07-28T13:56:52.733Z,99468.56
2018-07-28T13:59:45.295Z,99459.27
2018-07-28T14:02:42.702Z,99456.17
2018-07-28T14:05:35.342Z,99464.44
2018-07-28T14:08:27.939Z,99476.77
2018-07-28T14:11:20.454Z,99479.20
2018-07-28T14:14:13.184Z,99482.56
2018-07-28T14:17:05.853Z,99504.38
2018-07-28T14:19:58.555Z,99533.16
2018-07-28T14:22:51.193Z,99550.44
2018-07-28T14:25:43.682Z,99572.31
2018-07-28T14:28:36.319Z,99571.11
2018-07-28T14:31:28.955Z,99585.16
2018-07-28T14:34:22.604Z,99568.16
2018-07-28T14:37:15.077Z,99581.09
2018-07-28T14:40:07.680Z,99581.23
2018-07-28T14:43:00.218Z,99571.75
2018-07-28T14:45:52.916Z,99552.37
2018-07-28T14:48:45.545Z,99529.29
2018-07-28T14:51:38.281Z,99518.28
2018-07-28T14:54:30.918Z,99501.24
2018-07-28T14:57:23.726Z,99499.22
2018-07-28T15:00:16.219Z,99489.44
2018-07-28T15:03:08.830Z,99494.66
2018-07-28T15:08:12.978Z,99499.56
2018-07-28T15:13:16.809Z,99515.45
2018-07-28T15:18:20.606Z,99533.19
2018-07-28T15:23:24.711Z,99535.52
2018-07-28T15:28:28.724Z,99537.20
2018-07-28T15:33:32.851Z,99539.89
2018-07-28T15:38:36.799Z,99530.30
2018-07-28T15:43:40.654Z,99531.49
2018-07-28T15:48:45.086Z,99524.56
2018-07-28T15:53:48.934Z,99537.22
2018-07-28T15:58:53.183Z,99552.44
2018-07-28T16:03:57.097Z,99568.31
2018-07-28T16:09:01.191Z,99579.27
2018-07-28T16:14:05.188Z,99626.24
2018-07-28T16:19:09.067Z,99619.63
2018-07-28T16:24:13.058Z,99623.85
2018-07-28T16:29:16.868Z,99626.41
2018-07-28T16:34:20.775Z,99620.98
2018-07-28T16:39:24.463Z,99639.39
2018-07-28T16:44:28.244Z,99653.06
2018-07-28T16:49:32.117Z,99738.38
2018-07-28T16:54:35.981Z,99729.73
2018-07-28T16:59:39.873Z,99750.27
2018-07-28T17:04:43.851Z,99747.88
2018-07-28T17:09:47.706Z,99724.67
2018-07-28T17:14:51.615Z,99738.20
2018-07-28T17:19:55.431Z,99739.91
2018-07-28T17:24:59.300Z,99741.26
2018-07-28T17:30:03.749Z,99718.47
2018-07-28T17:35:08.083Z,99699.69
2018-07-28T17:40:11.863Z,99676.00
2018-07-28T17:45:15.831Z,99663.97
2018-07-28T17:50:20.422Z,99654.52
2018-07-28T17:55:24.922Z,99640.69
2018-07-28T18:00:28.810Z,99630.86
2018-07-28T18:05:33.412Z,99639.28
2018-07-28T18:10:37.422Z,99645.69
2018-07-28T18:15:41.415Z,99653.80
2018-07-28T18:20:45.227Z,99657.73
2018-07-28T18:25:49.098Z,99668.91
2018-07-28T18:30:53.837Z,99684.07
2018-07-28T18:35:57.272Z,99726.56
2018-07-28T18:41:02.067Z,99744.14
2018-07-28T18:46:06.037Z,99750.73
2018-07-28T18:51:09.902Z,99773.42
2018-07-28T18:56:13.764Z,99795.78
2018-07-28T19:01:17.786Z,99803.64
2018-07-28T19:06:21.842Z,99803.33
2018-07-28T19:11:26.493Z,99803.52
2018-07-28T19:16:30.695Z,99785.44
2018-07-28T19:21:34.523Z,99803.03
2018-07-28T19:26:38.355Z,99818.91
2018-07-28T19:31:42.458Z,99831.27
2018-07-28T19:36:51.368Z,99830.14
2018-07-28T19:42:00.247Z,99840.95
2018-07-28T19:47:04.071Z,99855.01
2018-07-28T19:52:07.949Z,99853.48
2018-07-28T19:57:11.746Z,99847.38
2018-07-28T20:02:15.582Z,99859.23
2018-07-28T20:07:19.282Z,99869.72
2018-07-28T20:12:23.036Z,99879.05
2018-07-28T20:17:27.052Z,99888.85
2018-07-28T20:22:30.843Z,99907.16
2018-07-28T20:27:34.646Z,99914.03
2018-07-28T20:32:38.484Z,99898.03
2018-07-28T20:37:42.342Z,99904.70
2018-07-28T20:42:46.207Z,99899.07
2018-07-28T20:47:50.110Z,99900.20
2018-07-28T20:52:53.910Z,99914.48
2018-07-28T20:57:57.747Z,99930.84
2018-07-28T21:03:01.563Z,99930.64
2018-07-28T21:08:05.495Z,99947.58
2018-07-28T21:13:09.311Z,99942.34
2018-07-28T21:18:13.051Z,99956.13
2018-07-28T21:23:17.468Z,99954.47
2018-07-28T21:28:21.229Z,99959.93
2018-07-28T21:33:25.056Z,99950.32
2018-07-28T21:38:28.834Z,99942.38
2018-07-28T21:43:32.627Z,99941.56
2018-07-28T21:48:36.460Z,99923.13
2018-07-28T21:53:40.297Z,99909.22
2018-07-28T21:58:44.088Z,99934.48
2018-07-28T22:03:47.916Z,99956.70
2018-07-28T22:08:51.714Z,99985.03
2018-07-28T22:13:55.558Z,99987.84
2018-07-28T22:18:59.371Z,99967.77
2018-07-28T22:24:03.216Z,99978.77
2018-07-28T22:29:07.059Z,99986.05
2018-07-28T22:34:10.894Z,99977.92
2018-07-28T22:39:14.695Z,99991.89
2018-07-28T22:44:18.598Z,100010.64
2018-07-28T22:49:22.411Z,100025.53
2018-07-28T22:54:26.434Z,100053.20
2018-07-28T22:59:30.237Z,100088.13
2018-07-28T23:04:34.033Z,100122.06
2018-07-28T23:09:37.867Z,100142.98
2018-07-28T23:14:41.678Z,100158.80
2018-07-28T23:19:45.409Z,100152.39
2018-07-28T23:24:49.266Z,100160.78
2018-07-28T23:29:53.117Z,100152.20
2018-07-28T23:34:56.905Z,100178.22
2018-07-28T23:40:00.743Z,100182.53
2018-07-28T23:45:06.438Z,100186.61
2018-07-28T23:50:10.253Z,100191.06
2018-07-28T23:55:14.095Z,100185.75
